Time;durP1;ratioP1;P1;durP2;ratioP2;P2;SDS_P1;SDS_P2;PMS_P1;PMS_P2;Temp;Humidity;BMP_temperature;BMP_pressure;BME280_temperature;BME280_humidity;BME280_pressure;Samples;Min_cycle;Max_cycle;Signal;HPM_P1;HPM_P2
2024/01/09 08:45:33;;;;;;;23.33;0.87;;;-4.60;99.90;;;;;;4240817;27;20227;-77
2024/01/09 08:48:01;;;;;;;0.83;0.57;;;-4.60;99.90;;;;;;4881262;29;20574;-77
2024/01/09 08:50:27;;;;;;;2.80;1.20;;;-4.50;99.90;;;;;;4889569;29;20230;-77
2024/01/09 08:52:55;;;;;;;9.10;1.40;;;-4.50;99.90;;;;;;4883701;29;20655;-83
2024/01/09 08:55:22;;;;;;;1.70;0.77;;;-4.50;99.90;;;;;;4881029;29;20214;-83
2024/01/09 08:57:49;;;;;;;4.87;1.83;;;-4.40;99.90;;;;;;4880530;29;20249;-79
2024/01/09 09:00:17;;;;;;;26.47;1.30;;;-4.50;99.90;;;;;;4880667;29;20199;-81
2024/01/09 09:02:45;;;;;;;1.63;0.73;;;-4.40;99.90;;;;;;4879854;29;20287;-78
2024/01/09 09:05:12;;;;;;;0.63;0.47;;;-4.40;99.90;;;;;;4881074;29;20208;-76
2024/01/09 09:07:39;;;;;;;3.83;1.63;;;-4.30;99.90;;;;;;4880585;29;20242;-77
2024/01/09 09:10:07;;;;;;;1.23;0.77;;;-4.30;99.90;;;;;;4880364;29;20215;-77
2024/01/09 09:12:34;;;;;;;0.57;0.30;;;-4.20;99.90;;;;;;4879779;29;20211;-77
2024/01/09 09:15:02;;;;;;;3.80;0.80;;;-4.20;99.90;;;;;;4879345;29;20286;-77
2024/01/09 09:17:30;;;;;;;3.17;1.47;;;-4.00;99.90;;;;;;4879802;29;20226;-78
2024/01/09 09:19:59;;;;;;;0.97;0.70;;;-4.00;99.90;;;;;;4876078;29;20714;-77
2024/01/09 09:22:28;;;;;;;3.57;1.60;;;-4.00;99.90;;;;;;4881521;29;20261;-76
2024/01/09 09:24:55;;;;;;;2.40;1.07;;;-3.90;99.90;;;;;;4879823;29;20286;-76
2024/01/09 09:27:22;;;;;;;1.37;1.07;;;-3.80;99.90;;;;;;4879954;29;20239;-77
2024/01/09 09:29:52;;;;;;;1.33;0.67;;;-3.80;99.90;;;;;;4885362;29;20248;-77
2024/01/09 09:32:19;;;;;;;2.40;1.37;;;-3.80;99.90;;;;;;4877989;29;20227;-77
2024/01/09 09:34:46;;;;;;;1.60;0.97;;;-3.90;99.90;;;;;;4876598;29;20320;-71
2024/01/09 09:37:14;;;;;;;1.30;1.13;;;-3.80;99.90;;;;;;4879429;29;20678;-76
2024/01/09 09:39:41;;;;;;;1.17;0.77;;;-3.80;99.90;;;;;;4878218;29;20337;-76
2024/01/09 09:42:10;;;;;;;0.93;0.63;;;-3.70;99.90;;;;;;4879682;29;20266;-76
2024/01/09 09:44:38;;;;;;;2.33;1.03;;;-3.70;99.90;;;;;;4879345;29;20560;-75
2024/01/09 09:47:07;;;;;;;3.60;1.60;;;-3.70;99.90;;;;;;4879684;29;20223;-76
2024/01/09 09:49:38;;;;;;;4.30;1.70;;;-3.50;99.90;;;;;;4879378;29;20298;-76
2024/01/09 09:52:05;;;;;;;2.00;0.83;;;-3.40;99.90;;;;;;4860817;29;20293;-77
2024/01/09 09:54:37;;;;;;;0.80;0.53;;;-3.50;99.90;;;;;;4869083;29;20295;-74
2024/01/09 09:57:04;;;;;;;2.50;0.97;;;-3.50;99.90;;;;;;4879227;29;20212;-76
2024/01/09 09:59:31;;;;;;;1.20;0.77;;;-3.50;99.90;;;;;;4878867;29;20267;-75
2024/01/09 10:01:58;;;;;;;3.80;0.60;;;-3.30;99.90;;;;;;4879427;29;20326;-73
2024/01/09 10:04:29;;;;;;;1.50;1.07;;;-3.20;99.90;;;;;;4879666;29;20208;-75
2024/01/09 10:06:56;;;;;;;2.10;0.50;;;-3.30;99.90;;;;;;4879329;29;20207;-76
2024/01/09 10:09:26;;;;;;;8.30;0.80;;;-3.30;99.90;;;;;;4878440;29;20210;-76
2024/01/09 10:11:55;;;;;;;3.30;1.03;;;-3.30;99.90;;;;;;4879140;29;20270;-75
2024/01/09 10:14:22;;;;;;;1.40;0.90;;;-3.30;99.90;;;;;;4878780;29;20246;-73
2024/01/09 10:16:50;;;;;;;3.93;1.67;;;-3.20;99.90;;;;;;4879044;29;20238;-76
2024/01/09 10:19:17;;;;;;;1.27;0.57;;;-3.00;99.90;;;;;;4879085;29;20329;-76
2024/01/09 10:21:44;;;;;;;0.80;0.70;;;-2.90;99.90;;;;;;4878506;29;20721;-77
2024/01/09 10:24:11;;;;;;;1.47;0.63;;;-2.90;99.90;;;;;;4879254;29;20309;-76
2024/01/09 10:26:38;;;;;;;4.17;1.53;;;-2.90;99.90;;;;;;4879173;29;20250;-75
2024/01/09 10:29:09;;;;;;;1.53;0.53;;;-2.80;99.90;;;;;;4879352;29;20311;-75
2024/01/09 10:31:35;;;;;;;2.07;1.13;;;-2.90;99.90;;;;;;4876008;29;20765;-75
2024/01/09 10:34:02;;;;;;;1.93;0.90;;;-2.80;99.90;;;;;;4880820;29;20294;-77
2024/01/09 10:36:29;;;;;;;3.27;0.93;;;-2.80;99.90;;;;;;4879235;29;20245;-75
2024/01/09 10:39:04;;;;;;;2.17;0.77;;;-2.80;99.90;;;;;;4880508;29;20322;-76
2024/01/09 10:41:31;;;;;;;1.57;0.53;;;-2.70;99.90;;;;;;4878925;29;21234;-76
2024/01/09 10:43:59;;;;;;;2.23;0.87;;;-2.60;99.90;;;;;;4878910;29;20647;-75
2024/01/09 10:46:31;;;;;;;2.67;0.80;;;-2.60;99.90;;;;;;4878999;29;20704;-73
2024/01/09 10:48:58;;;;;;;0.77;0.53;;;-2.60;99.90;;;;;;4879105;29;20253;-76
2024/01/09 10:51:26;;;;;;;4.37;1.20;;;-2.50;99.90;;;;;;4878439;29;20239;-76
2024/01/09 10:53:53;;;;;;;1.63;1.03;;;-2.50;99.90;;;;;;4878784;29;20261;-75
2024/01/09 10:56:21;;;;;;;1.80;1.20;;;-2.40;99.90;;;;;;4878882;29;20242;-75
2024/01/09 10:58:50;;;;;;;2.77;0.80;;;-2.50;99.90;;;;;;4879063;29;20245;-75
2024/01/09 11:01:17;;;;;;;0.90;0.70;;;-2.50;99.90;;;;;;4878281;29;20259;-76
2024/01/09 11:03:47;;;;;;;3.30;0.90;;;-2.50;99.90;;;;;;4878522;29;20269;-76
2024/01/09 11:06:17;;;;;;;1.07;0.43;;;-2.40;99.90;;;;;;4878550;29;20263;-74
2024/01/09 11:08:50;;;;;;;1.07;0.70;;;-2.40;99.90;;;;;;4897303;29;20217;-75
2024/01/09 11:11:19;;;;;;;2.43;1.10;;;-2.40;99.90;;;;;;4895484;29;20230;-74
2024/01/09 11:13:48;;;;;;;1.70;0.90;;;-2.30;99.90;;;;;;4878635;29;20548;-75
2024/01/09 11:16:18;;;;;;;1.97;0.93;;;-2.30;99.90;;;;;;4878644;29;20238;-70
2024/01/09 11:18:47;;;;;;;1.33;0.60;;;-2.10;99.90;;;;;;4878311;29;20721;-71
2024/01/09 11:21:15;;;;;;;3.27;1.83;;;-2.00;99.90;;;;;;4878260;29;20231;-70
2024/01/09 11:24:00;;;;;;;4.30;1.03;;;-2.10;99.90;;;;;;4878742;29;20215;-72
2024/01/09 11:26:29;;;;;;;1.23;1.00;;;-2.00;99.90;;;;;;4880533;29;20258;-71
2024/01/09 11:28:57;;;;;;;6.50;1.43;;;-2.10;99.90;;;;;;4882309;29;20215;-73
2024/01/09 11:31:24;;;;;;;1.33;0.50;;;-2.10;99.90;;;;;;4881723;29;20231;-72
2024/01/09 11:33:55;;;;;;;2.77;1.17;;;-2.00;99.90;;;;;;4881949;29;20211;-72
2024/01/09 11:36:24;;;;;;;1.00;0.53;;;-1.90;99.90;;;;;;4882008;29;20238;-72
2024/01/09 11:38:53;;;;;;;13.07;0.83;;;-1.90;99.90;;;;;;4881955;29;20663;-75
2024/01/09 11:41:22;;;;;;;4.70;1.00;;;-1.80;99.90;;;;;;4882050;29;20230;-75
2024/01/09 11:44:00;;;;;;;2.27;1.20;;;-1.60;99.90;;;;;;4882034;29;20222;-74
2024/01/09 11:46:27;;;;;;;2.37;0.63;;;-1.50;99.90;;;;;;4881805;29;20211;-74
2024/01/09 11:48:56;;;;;;;3.67;1.00;;;-1.50;99.90;;;;;;4881867;29;20663;-75
2024/01/09 11:51:23;;;;;;;1.43;1.03;;;-1.50;99.90;;;;;;4881585;29;20266;-75
2024/01/09 11:53:51;;;;;;;1.83;0.83;;;-1.50;99.90;;;;;;4882083;29;20207;-74
2024/01/09 11:56:19;;;;;;;2.80;1.17;;;-1.50;99.90;;;;;;4881485;29;20267;-73
2024/01/09 11:58:50;;;;;;;2.63;0.77;;;-1.50;99.90;;;;;;4881504;29;20259;-74
2024/01/09 12:01:19;;;;;;;3.83;0.93;;;-1.40;99.90;;;;;;4880780;29;20238;-71
2024/01/09 12:03:52;;;;;;;2.23;1.10;;;-1.30;99.90;;;;;;4881337;29;20655;-73
2024/01/09 12:06:22;;;;;;;4.03;1.10;;;-1.10;99.90;;;;;;4881658;29;20229;-71
2024/01/09 12:08:49;;;;;;;3.73;0.73;;;-1.00;99.90;;;;;;4881602;29;20239;-73
2024/01/09 12:11:16;;;;;;;1.63;0.70;;;-1.00;98.70;;;;;;4881035;29;20231;-73
2024/01/09 12:13:44;;;;;;;3.43;0.63;;;-1.00;98.60;;;;;;4881199;29;20303;-74
2024/01/09 12:16:18;;;;;;;1.03;0.63;;;-1.00;98.90;;;;;;4880749;29;20278;-74
2024/01/09 12:18:50;;;;;;;0.93;0.50;;;-0.90;98.60;;;;;;4881352;29;20238;-75
2024/01/09 12:21:18;;;;;;;1.70;0.70;;;-1.10;98.20;;;;;;4880863;29;20294;-74
2024/01/09 12:23:47;;;;;;;1.37;0.73;;;-1.10;98.70;;;;;;4880843;29;20219;-74
2024/01/09 12:26:16;;;;;;;1.97;0.60;;;-1.00;98.70;;;;;;4880538;29;20296;-74
2024/01/09 12:28:44;;;;;;;1.40;0.57;;;-0.90;98.70;;;;;;4894654;29;20202;-75
2024/01/09 12:31:11;;;;;;;1.40;0.70;;;-0.90;98.60;;;;;;4899226;29;20241;-75
2024/01/09 12:33:38;;;;;;;1.73;0.60;;;-0.90;98.40;;;;;;4899519;29;20238;-75
2024/01/09 12:36:05;;;;;;;1.47;0.87;;;-0.70;98.50;;;;;;4899117;29;20206;-75
2024/01/09 12:38:33;;;;;;;2.23;1.07;;;-0.70;98.10;;;;;;4899687;29;20249;-74
2024/01/09 12:41:02;;;;;;;5.10;0.93;;;-0.70;97.70;;;;;;4899204;29;20273;-75
2024/01/09 12:43:29;;;;;;;1.80;0.73;;;-0.70;97.60;;;;;;4899385;29;20661;-75
2024/01/09 12:45:57;;;;;;;3.67;1.00;;;-0.70;97.90;;;;;;4885776;29;20690;-76
2024/01/09 12:48:24;;;;;;;1.70;0.97;;;-0.70;97.50;;;;;;4880389;29;20219;-75
2024/01/09 12:51:01;;;;;;;0.83;0.50;;;-0.70;97.40;;;;;;4880858;29;20230;-73
2024/01/09 12:53:29;;;;;;;1.37;0.77;;;-0.60;97.70;;;;;;4879825;29;20210;-72
2024/01/09 12:56:05;;;;;;;4.07;1.30;;;-0.40;97.70;;;;;;4880584;29;20267;-75
2024/01/09 12:58:34;;;;;;;1.63;1.20;;;-0.30;97.70;;;;;;4882347;29;20257;-75
2024/01/09 13:01:03;;;;;;;1.47;0.70;;;-0.20;97.20;;;;;;4880159;29;20267;-74
2024/01/09 13:03:30;;;;;;;6.27;0.70;;;-0.30;97.10;;;;;;4880108;29;20210;-75
2024/01/09 13:06:00;;;;;;;0.90;0.57;;;-0.20;96.90;;;;;;4892359;29;20263;-73
2024/01/09 13:08:26;;;;;;;1.47;0.60;;;-0.20;97.10;;;;;;4861426;29;20750;-74
2024/01/09 13:10:53;;;;;;;1.67;0.90;;;-0.20;96.80;;;;;;4873045;29;20227;-74
2024/01/09 13:13:22;;;;;;;1.23;0.60;;;-0.20;96.80;;;;;;4880302;29;20253;-75
2024/01/09 13:15:50;;;;;;;2.97;0.90;;;-0.10;97.50;;;;;;4890241;29;20750;-71
2024/01/09 13:18:18;;;;;;;2.87;0.87;;;-0.10;97.30;;;;;;4880880;29;20216;-73
2024/01/09 13:20:45;;;;;;;3.60;1.03;;;0.10;96.80;;;;;;4879620;29;20330;-75
2024/01/09 13:23:12;;;;;;;1.40;0.83;;;0.10;96.90;;;;;;4880366;29;20218;-75
2024/01/09 13:25:39;;;;;;;1.93;0.90;;;0.00;96.90;;;;;;4880361;29;20210;-75
2024/01/09 13:28:06;;;;;;;1.77;0.70;;;0.00;96.80;;;;;;4879428;29;20287;-74
2024/01/09 13:30:34;;;;;;;4.60;1.07;;;0.10;96.70;;;;;;4880043;29;20249;-75
2024/01/09 13:33:03;;;;;;;2.03;1.07;;;0.10;96.60;;;;;;4880047;29;20235;-75
2024/01/09 13:35:32;;;;;;;1.70;0.77;;;0.00;96.60;;;;;;4880037;29;20681;-74
2024/01/09 13:38:00;;;;;;;1.60;1.00;;;0.00;96.70;;;;;;4880175;29;20215;-71
2024/01/09 13:40:27;;;;;;;4.50;1.00;;;0.00;97.00;;;;;;4879931;29;20235;-74
2024/01/09 13:42:54;;;;;;;1.00;0.77;;;0.20;96.70;;;;;;4880042;29;20238;-75
2024/01/09 13:45:23;;;;;;;2.77;1.10;;;0.10;96.20;;;;;;4879706;29;20215;-74
2024/01/09 13:47:51;;;;;;;2.97;1.03;;;0.00;96.50;;;;;;4879064;29;20249;-75
2024/01/09 13:50:19;;;;;;;2.57;0.70;;;-0.10;96.50;;;;;;4879682;29;20599;-75
2024/01/09 13:52:46;;;;;;;2.83;1.00;;;-0.10;96.50;;;;;;4879462;29;20689;-74
2024/01/09 13:55:13;;;;;;;1.70;0.90;;;0.10;96.20;;;;;;4879445;29;20552;-75
2024/01/09 13:57:42;;;;;;;8.40;1.80;;;0.10;96.40;;;;;;4877371;29;20682;-74
2024/01/09 14:00:10;;;;;;;2.40;0.93;;;0.00;96.30;;;;;;4879234;29;20245;-74
2024/01/09 14:02:38;;;;;;;1.73;0.73;;;-0.10;96.20;;;;;;4879489;29;20215;-74
2024/01/09 14:05:07;;;;;;;4.07;1.40;;;-0.10;96.40;;;;;;4881660;29;20684;-74
2024/01/09 14:07:38;;;;;;;2.50;0.73;;;-0.10;96.60;;;;;;4889864;29;20298;-72
2024/01/09 14:10:06;;;;;;;2.80;1.03;;;-0.10;96.30;;;;;;4879252;29;20238;-73
2024/01/09 14:12:34;;;;;;;2.67;1.10;;;0.00;96.30;;;;;;4878890;29;20686;-72
2024/01/09 14:15:02;;;;;;;2.53;1.10;;;-0.10;96.00;;;;;;4880297;29;20225;-74
2024/01/09 14:17:29;;;;;;;2.17;0.60;;;0.00;96.50;;;;;;4889843;29;20211;-74
2024/01/09 14:19:56;;;;;;;1.20;0.83;;;0.00;95.90;;;;;;4878772;29;20356;-74
2024/01/09 14:22:26;;;;;;;3.00;0.77;;;-0.10;95.80;;;;;;4878767;29;20267;-72
2024/01/09 14:24:53;;;;;;;1.77;0.73;;;-0.10;96.10;;;;;;4878309;29;20250;-71
2024/01/09 14:27:20;;;;;;;4.90;1.00;;;-0.10;96.10;;;;;;4877764;29;20214;-74
2024/01/09 14:29:49;;;;;;;1.93;0.60;;;-0.10;95.80;;;;;;4878252;29;20207;-74
2024/01/09 14:32:16;;;;;;;1.83;0.80;;;0.00;96.10;;;;;;4877983;29;20627;-74
2024/01/09 14:34:43;;;;;;;2.57;0.67;;;-0.10;95.90;;;;;;4878680;29;20238;-74
2024/01/09 14:37:10;;;;;;;2.50;0.90;;;-0.10;96.00;;;;;;4878742;29;20239;-74
2024/01/09 14:39:39;;;;;;;0.97;0.63;;;0.00;95.90;;;;;;4878737;29;20215;-75
2024/01/09 14:42:07;;;;;;;2.17;1.10;;;-0.10;95.80;;;;;;4879717;29;20261;-74
2024/01/09 14:44:34;;;;;;;2.30;1.27;;;-0.10;95.70;;;;;;4878687;29;20215;-74
2024/01/09 14:47:01;;;;;;;3.00;1.10;;;-0.10;95.60;;;;;;4878745;29;20302;-72
2024/01/09 14:49:29;;;;;;;2.00;0.80;;;-0.20;95.60;;;;;;4878769;29;20734;-74
2024/01/09 14:51:56;;;;;;;3.00;1.20;;;-0.20;95.60;;;;;;4878721;29;20266;-75
2024/01/09 14:54:25;;;;;;;4.07;1.07;;;-0.30;96.00;;;;;;4878518;29;20215;-75
2024/01/09 14:56:54;;;;;;;2.37;0.50;;;-0.10;96.00;;;;;;4878531;29;20211;-74
2024/01/09 14:59:21;;;;;;;2.93;0.93;;;-0.10;95.60;;;;;;4877700;29;20221;-73
2024/01/09 15:01:51;;;;;;;2.53;1.07;;;-0.10;95.90;;;;;;4880832;29;20242;-74
2024/01/09 15:04:19;;;;;;;3.30;1.00;;;-0.10;95.70;;;;;;4882124;29;20219;-71
2024/01/09 15:06:45;;;;;;;1.80;0.83;;;-0.20;95.80;;;;;;4882284;29;20251;-71
2024/01/09 15:09:12;;;;;;;1.93;0.80;;;-0.30;96.00;;;;;;4882442;29;20238;-74
2024/01/09 15:11:39;;;;;;;1.67;0.80;;;-0.30;95.80;;;;;;4881969;29;20258;-74
2024/01/09 15:14:08;;;;;;;1.60;0.90;;;-0.30;95.70;;;;;;4882214;29;20318;-74
2024/01/09 15:16:34;;;;;;;2.67;0.90;;;-0.30;95.70;;;;;;4882464;29;20234;-74
2024/01/09 15:19:02;;;;;;;1.43;0.93;;;-0.30;95.30;;;;;;4882294;29;20249;-73
2024/01/09 15:21:32;;;;;;;2.47;1.20;;;-0.40;95.60;;;;;;4881917;29;20706;-74
2024/01/09 15:23:59;;;;;;;3.37;1.00;;;-0.50;95.70;;;;;;4882045;29;20292;-74
2024/01/09 15:26:26;;;;;;;3.67;1.07;;;-0.40;95.60;;;;;;4882212;29;20212;-74
2024/01/09 15:28:53;;;;;;;3.77;1.53;;;-0.40;95.50;;;;;;4881490;29;20207;-73
2024/01/09 15:31:22;;;;;;;1.80;0.80;;;-0.50;95.70;;;;;;4881278;29;20326;-73
2024/01/09 15:33:49;;;;;;;3.77;1.70;;;-0.50;95.70;;;;;;4881051;29;20588;-74
2024/01/09 15:36:17;;;;;;;1.40;0.60;;;-0.50;95.80;;;;;;4878792;29;20211;-74
2024/01/09 15:38:44;;;;;;;2.73;0.87;;;-0.50;95.80;;;;;;4881278;29;20283;-74
2024/01/09 15:41:12;;;;;;;3.27;1.03;;;-0.50;95.70;;;;;;4881145;29;20338;-73
2024/01/09 15:43:39;;;;;;;3.40;0.93;;;-0.60;95.80;;;;;;4881740;29;20253;-74
2024/01/09 15:46:06;;;;;;;1.73;1.10;;;-0.60;96.10;;;;;;4881613;29;20293;-73
2024/01/09 15:48:35;;;;;;;16.20;1.03;;;-0.60;95.90;;;;;;4881141;29;20219;-74
2024/01/09 15:51:05;;;;;;;5.60;0.80;;;-0.60;96.00;;;;;;4881577;29;20322;-73
2024/01/09 15:53:33;;;;;;;3.43;1.00;;;-0.70;96.10;;;;;;4881668;29;20253;-74
2024/01/09 15:55:59;;;;;;;3.70;1.17;;;-0.80;96.30;;;;;;4888289;29;20202;-73
2024/01/09 15:58:26;;;;;;;4.50;0.80;;;-0.80;96.50;;;;;;4890765;29;20235;-72
2024/01/09 16:00:53;;;;;;;1.73;0.67;;;-0.70;96.30;;;;;;4880858;29;20334;-74
2024/01/09 16:03:20;;;;;;;5.27;1.23;;;-0.80;96.50;;;;;;4881269;29;20251;-74
2024/01/09 16:05:48;;;;;;;4.10;1.37;;;-0.80;96.60;;;;;;4881388;29;20250;-75
2024/01/09 16:08:15;;;;;;;1.20;0.80;;;-0.90;96.80;;;;;;4881527;29;20242;-71
2024/01/09 16:10:42;;;;;;;4.70;1.77;;;-0.80;96.80;;;;;;4881352;29;20235;-75
2024/01/09 16:13:09;;;;;;;11.00;1.47;;;-0.80;96.80;;;;;;4881163;29;20674;-75
2024/01/09 16:15:39;;;;;;;3.13;1.00;;;-0.90;96.70;;;;;;4881321;29;20207;-74
2024/01/09 16:18:06;;;;;;;1.40;0.70;;;-1.00;96.80;;;;;;4881732;29;20212;-74
2024/01/09 16:20:33;;;;;;;2.40;1.00;;;-1.10;97.00;;;;;;4881334;29;20329;-76
2024/01/09 16:23:02;;;;;;;3.43;1.23;;;-1.10;97.10;;;;;;4880819;29;20329;-73
2024/01/09 16:25:28;;;;;;;3.80;1.17;;;-1.10;97.60;;;;;;4862055;29;20248;-72
2024/01/09 16:27:55;;;;;;;5.57;0.90;;;-1.10;97.10;;;;;;4862417;29;20259;-75
2024/01/09 16:30:22;;;;;;;4.07;1.43;;;-1.10;97.20;;;;;;4862284;29;20308;-75
2024/01/09 16:32:49;;;;;;;1.30;0.80;;;-1.10;97.20;;;;;;4870930;29;20242;-75
2024/01/09 16:35:16;;;;;;;4.10;1.20;;;-1.20;97.40;;;;;;4880507;29;20251;-75
2024/01/09 16:37:43;;;;;;;2.83;1.07;;;-1.20;97.40;;;;;;4880326;29;20217;-74
2024/01/09 16:40:14;;;;;;;2.13;1.00;;;-1.20;97.00;;;;;;4880029;29;20218;-75
2024/01/09 16:42:42;;;;;;;3.43;1.07;;;-1.20;96.90;;;;;;4880399;29;20215;-75
2024/01/09 16:45:10;;;;;;;2.20;0.97;;;-1.20;96.90;;;;;;4880200;29;20275;-73
2024/01/09 16:47:37;;;;;;;2.23;1.03;;;-1.20;96.90;;;;;;4880707;29;20222;-78
2024/01/09 16:50:05;;;;;;;1.33;0.60;;;-1.20;96.80;;;;;;4879986;29;20267;-74
2024/01/09 16:52:32;;;;;;;4.10;1.30;;;-1.20;96.90;;;;;;4880683;29;20215;-73
2024/01/09 16:54:59;;;;;;;2.73;1.03;;;-1.20;96.80;;;;;;4879535;29;20243;-73
2024/01/09 16:57:27;;;;;;;2.93;0.90;;;-1.20;96.80;;;;;;4879833;29;20249;-74
2024/01/09 16:59:54;;;;;;;1.93;1.17;;;-1.20;96.80;;;;;;4879550;29;20705;-73
2024/01/09 17:02:22;;;;;;;0.77;0.40;;;-1.10;96.90;;;;;;4877634;29;20304;-71
2024/01/09 17:04:50;;;;;;;2.60;1.30;;;-1.20;96.50;;;;;;4880317;29;20240;-73
2024/01/09 17:07:17;;;;;;;1.27;0.60;;;-1.20;96.50;;;;;;4879683;29;20214;-74
2024/01/09 17:09:44;;;;;;;3.90;0.90;;;-1.30;96.50;;;;;;4880388;29;20620;-74
2024/01/09 17:12:11;;;;;;;5.10;0.90;;;-1.30;96.50;;;;;;4880438;29;20250;-74
2024/01/09 17:14:43;;;;;;;4.27;1.07;;;-1.40;96.50;;;;;;4880305;29;20221;-73
2024/01/09 17:17:10;;;;;;;3.10;1.10;;;-1.50;96.50;;;;;;4880390;29;20221;-74
2024/01/09 17:19:37;;;;;;;3.07;1.20;;;-1.50;96.40;;;;;;4879689;29;20254;-74
2024/01/09 17:22:05;;;;;;;3.23;1.23;;;-1.40;96.30;;;;;;4879900;29;20282;-74
2024/01/09 17:24:32;;;;;;;3.73;0.90;;;-1.50;96.40;;;;;;4877644;29;20221;-71
2024/01/09 17:26:59;;;;;;;2.20;1.00;;;-1.40;96.40;;;;;;4879938;29;20740;-71
2024/01/09 17:29:26;;;;;;;3.00;1.27;;;-1.50;96.30;;;;;;4879981;29;20635;-71
2024/01/09 17:31:54;;;;;;;1.40;1.00;;;-1.40;96.20;;;;;;4879355;29;20290;-73
2024/01/09 17:34:21;;;;;;;2.17;0.80;;;-1.50;96.20;;;;;;4879697;29;20251;-74
2024/01/09 17:36:48;;;;;;;2.80;1.10;;;-1.50;96.30;;;;;;4879747;29;20302;-73
2024/01/09 17:39:15;;;;;;;1.57;0.57;;;-1.60;96.20;;;;;;4879988;29;20238;-73
2024/01/09 17:41:42;;;;;;;1.73;0.70;;;-1.60;96.00;;;;;;4880077;29;20316;-74
2024/01/09 17:44:09;;;;;;;0.77;0.50;;;-1.60;96.20;;;;;;4879860;29;20219;-73
2024/01/09 17:46:39;;;;;;;2.97;1.10;;;-1.60;95.90;;;;;;4879763;29;20215;-73
2024/01/09 17:49:08;;;;;;;2.33;1.23;;;-1.60;95.80;;;;;;4880089;29;20214;-73
2024/01/09 17:51:39;;;;;;;1.57;0.90;;;-1.70;95.90;;;;;;4879204;29;20227;-73
2024/01/09 17:54:05;;;;;;;1.63;0.57;;;-1.60;95.80;;;;;;4879702;29;20207;-73
2024/01/09 17:56:36;;;;;;;1.07;0.60;;;-1.60;95.50;;;;;;4878973;29;20215;-74
2024/01/09 17:59:04;;;;;;;2.20;1.23;;;-1.60;95.60;;;;;;4879530;29;20215;-73
2024/01/09 18:01:31;;;;;;;3.30;1.00;;;-1.50;95.70;;;;;;4879021;29;20308;-71
2024/01/09 18:03:58;;;;;;;1.20;0.80;;;-1.60;95.70;;;;;;4879028;29;20238;-74
2024/01/09 18:06:27;;;;;;;3.70;0.87;;;-1.60;95.70;;;;;;4879446;29;20207;-73
2024/01/09 18:08:54;;;;;;;2.97;0.93;;;-1.60;95.50;;;;;;4879667;29;20219;-72
2024/01/09 18:11:23;;;;;;;1.77;0.90;;;-1.60;95.40;;;;;;4879255;29;20318;-73
2024/01/09 18:13:52;;;;;;;1.67;0.50;;;-1.60;95.60;;;;;;4879316;29;20547;-73
2024/01/09 18:16:19;;;;;;;2.17;0.83;;;-1.70;95.50;;;;;;4878997;29;20279;-73
2024/01/09 18:18:47;;;;;;;1.90;0.93;;;-1.60;95.30;;;;;;4879283;29;20298;-71
2024/01/09 18:21:22;;;;;;;2.60;0.70;;;-1.60;95.20;;;;;;4879430;29;20239;-73
2024/01/09 18:23:50;;;;;;;2.03;0.80;;;-1.60;95.40;;;;;;4879206;29;20214;-73
2024/01/09 18:26:17;;;;;;;3.60;1.47;;;-1.70;95.10;;;;;;4879476;29;20566;-72
2024/01/09 18:28:47;;;;;;;2.37;0.60;;;-1.70;95.30;;;;;;4879390;29;20250;-73
2024/01/09 18:31:14;;;;;;;3.83;1.50;;;-1.90;95.20;;;;;;4879166;29;20709;-73
2024/01/09 18:33:43;;;;;;;2.93;1.20;;;-1.80;95.40;;;;;;4879299;29;20211;-71
2024/01/09 18:36:11;;;;;;;3.13;1.27;;;-1.90;95.30;;;;;;4878558;29;20556;-73
2024/01/09 18:38:38;;;;;;;2.53;1.27;;;-1.80;95.50;;;;;;4879112;29;20242;-73
2024/01/09 18:41:06;;;;;;;5.47;1.63;;;-1.80;95.30;;;;;;4878828;29;20231;-74
2024/01/09 18:43:34;;;;;;;3.97;1.30;;;-1.80;95.30;;;;;;4878930;29;20291;-73
2024/01/09 18:46:01;;;;;;;2.50;0.93;;;-1.80;95.20;;;;;;4878962;29;20211;-73
2024/01/09 18:48:29;;;;;;;3.30;1.00;;;-1.80;95.30;;;;;;4879022;29;20586;-74
2024/01/09 18:50:57;;;;;;;6.03;1.33;;;-1.80;95.40;;;;;;4878813;29;20773;-74
2024/01/09 18:53:24;;;;;;;3.83;1.60;;;-1.90;95.60;;;;;;4878802;29;20302;-74
2024/01/09 18:55:50;;;;;;;2.83;1.33;;;-2.00;95.60;;;;;;4879080;29;20683;-73
2024/01/09 18:58:19;;;;;;;2.03;1.40;;;-2.00;95.90;;;;;;4878483;29;20211;-74
2024/01/09 19:00:46;;;;;;;2.10;1.23;;;-2.10;96.00;;;;;;4877350;29;20345;-74
2024/01/09 19:03:14;;;;;;;31.40;6.43;;;-2.10;95.90;;;;;;4878000;29;20317;-71
2024/01/09 19:05:41;;;;;;;3.93;2.47;;;-2.10;96.00;;;;;;4877080;29;20214;-74
2024/01/09 19:08:09;;;;;;;2.13;1.30;;;-2.20;95.90;;;;;;4879022;29;20235;-74
2024/01/09 19:10:37;;;;;;;5.03;2.10;;;-2.20;96.20;;;;;;4878816;29;20231;-71
2024/01/09 19:13:04;;;;;;;2.27;0.97;;;-2.20;96.00;;;;;;4878969;29;20210;-71
2024/01/09 19:15:32;;;;;;;3.63;1.10;;;-2.20;96.00;;;;;;4878649;29;20727;-72
2024/01/09 19:17:59;;;;;;;5.20;1.50;;;-2.20;96.00;;;;;;4879011;29;20250;-74
2024/01/09 19:20:26;;;;;;;1.40;1.00;;;-2.30;96.00;;;;;;4878236;29;20390;-73
2024/01/09 19:22:55;;;;;;;3.37;1.53;;;-2.20;96.00;;;;;;4878220;29;20334;-71
2024/01/09 19:25:23;;;;;;;4.30;1.50;;;-2.30;96.00;;;;;;4878165;29;20215;-71
2024/01/09 19:27:50;;;;;;;3.10;1.37;;;-2.30;96.10;;;;;;4878635;29;20214;-74
2024/01/09 19:30:17;;;;;;;2.63;1.17;;;-2.20;96.10;;;;;;4878404;29;20722;-73
2024/01/09 19:32:48;;;;;;;3.60;1.17;;;-2.20;96.10;;;;;;4878337;29;20690;-74
2024/01/09 19:35:15;;;;;;;4.50;1.57;;;-2.30;96.10;;;;;;4878257;29;20255;-74
2024/01/09 19:37:44;;;;;;;5.60;1.57;;;-2.30;96.10;;;;;;4877820;29;20243;-72
2024/01/09 19:40:11;;;;;;;2.43;1.27;;;-2.30;96.00;;;;;;4878214;29;20679;-71
2024/01/09 19:42:39;;;;;;;3.27;1.40;;;-2.30;95.90;;;;;;4878361;29;20330;-74
2024/01/09 19:45:07;;;;;;;9.60;1.77;;;-2.20;95.90;;;;;;4878108;29;20411;-74
2024/01/09 19:47:34;;;;;;;4.10;1.27;;;-2.20;95.90;;;;;;4880379;29;20744;-74
2024/01/09 19:50:02;;;;;;;4.77;1.57;;;-2.30;96.10;;;;;;4881874;29;20245;-73
2024/01/09 19:52:30;;;;;;;2.30;1.13;;;-2.30;96.10;;;;;;4881860;29;20278;-74
2024/01/09 19:54:57;;;;;;;4.47;0.90;;;-2.30;96.10;;;;;;4881877;29;20283;-75
2024/01/09 19:57:24;;;;;;;4.10;1.10;;;-2.30;96.30;;;;;;4881999;29;20247;-74
2024/01/09 19:59:51;;;;;;;4.40;1.43;;;-2.30;96.10;;;;;;4881501;29;20259;-74
2024/01/09 20:02:18;;;;;;;3.40;1.63;;;-2.40;96.30;;;;;;4881605;29;20706;-74
2024/01/09 20:04:45;;;;;;;1.83;1.00;;;-2.40;96.40;;;;;;4881774;29;20207;-74
2024/01/09 20:07:15;;;;;;;2.80;1.40;;;-2.50;96.40;;;;;;4881966;29;20570;-73
2024/01/09 20:09:42;;;;;;;2.00;0.77;;;-2.40;96.40;;;;;;4882031;29;20267;-73
2024/01/09 20:12:09;;;;;;;2.97;1.50;;;-2.50;96.40;;;;;;4881643;29;20323;-75
2024/01/09 20:14:36;;;;;;;1.47;0.83;;;-2.40;96.50;;;;;;4881761;29;20743;-74
2024/01/09 20:17:03;;;;;;;2.20;1.20;;;-2.40;96.50;;;;;;4881772;29;20208;-73
2024/01/09 20:19:30;;;;;;;2.10;1.27;;;-2.40;96.60;;;;;;4881535;29;20750;-75
2024/01/09 20:21:56;;;;;;;4.20;1.20;;;-2.40;96.40;;;;;;4881384;29;20338;-74
2024/01/09 20:24:25;;;;;;;2.63;1.33;;;-2.40;96.40;;;;;;4881391;29;20348;-73
2024/01/09 20:26:52;;;;;;;1.03;0.80;;;-2.40;96.40;;;;;;4881774;29;20302;-75
2024/01/09 20:29:19;;;;;;;2.23;1.17;;;-2.40;96.60;;;;;;4881358;29;20211;-75
2024/01/09 20:31:46;;;;;;;2.97;1.70;;;-2.40;96.60;;;;;;4881406;29;20594;-72
2024/01/09 20:34:14;;;;;;;4.70;2.40;;;-2.50;96.60;;;;;;4881385;29;20246;-75
2024/01/09 20:36:43;;;;;;;3.60;1.10;;;-2.50;96.80;;;;;;4881191;29;20712;-72
2024/01/09 20:39:14;;;;;;;2.83;1.20;;;-2.60;96.90;;;;;;4881394;29;20318;-74
2024/01/09 20:41:44;;;;;;;1.97;0.80;;;-2.60;96.90;;;;;;4881590;29;20714;-71
2024/01/09 20:44:14;;;;;;;1.53;1.37;;;-2.70;97.10;;;;;;4881069;29;20294;-72
2024/01/09 20:46:41;;;;;;;3.20;1.67;;;-2.60;97.20;;;;;;4881147;29;20215;-73
2024/01/09 20:49:08;;;;;;;2.47;0.93;;;-2.40;97.00;;;;;;4881220;29;20207;-71
2024/01/09 20:51:36;;;;;;;3.57;1.73;;;-2.40;96.90;;;;;;4881167;29;20262;-73
2024/01/09 20:54:06;;;;;;;4.83;2.27;;;-2.50;96.90;;;;;;4880770;29;20235;-73
2024/01/09 20:56:33;;;;;;;3.23;1.70;;;-2.50;97.10;;;;;;4881219;29;20215;-72
2024/01/09 20:59:01;;;;;;;9.10;1.30;;;-2.60;97.10;;;;;;4881988;29;20272;-72
2024/01/09 21:01:30;;;;;;;3.60;1.80;;;-2.50;97.20;;;;;;4880762;29;20234;-72
2024/01/09 21:03:57;;;;;;;4.83;1.90;;;-2.60;97.40;;;;;;4881459;29;20307;-73
2024/01/09 21:06:24;;;;;;;3.37;1.20;;;-2.70;97.40;;;;;;4881273;29;20215;-70
2024/01/09 21:08:51;;;;;;;4.10;1.40;;;-2.60;97.60;;;;;;4881040;29;20623;-72
2024/01/09 21:11:18;;;;;;;3.10;1.50;;;-2.70;97.60;;;;;;4880910;29;20231;-71
2024/01/09 21:13:45;;;;;;;3.77;1.77;;;-2.70;97.70;;;;;;4880813;29;20219;-73
2024/01/09 21:16:16;;;;;;;1.67;0.60;;;-2.70;97.70;;;;;;4881113;29;20656;-73
2024/01/09 21:18:43;;;;;;;5.33;1.60;;;-2.70;97.80;;;;;;4880964;29;20246;-73
2024/01/09 21:21:11;;;;;;;3.93;1.53;;;-2.60;97.80;;;;;;4880423;29;20280;-73
2024/01/09 21:23:38;;;;;;;3.13;1.03;;;-2.60;97.80;;;;;;4880503;29;20326;-73
2024/01/09 21:26:05;;;;;;;2.13;0.93;;;-2.70;97.90;;;;;;4880285;29;20218;-73
2024/01/09 21:28:32;;;;;;;4.83;1.87;;;-2.70;98.00;;;;;;4880442;29;20207;-73
2024/01/09 21:30:59;;;;;;;2.00;1.00;;;-2.70;98.00;;;;;;4880046;29;20364;-72
2024/01/09 21:33:27;;;;;;;1.97;1.23;;;-2.80;98.10;;;;;;4880071;29;20254;-73
2024/01/09 21:35:54;;;;;;;3.90;1.13;;;-2.80;98.20;;;;;;4879942;29;20639;-73